sensor_id;sensor_type;location;lat;lon;timestamp;P1;durP1;ratioP1;P2;durP2;ratioP2
76695;SDS011;65626;44.498;0.166;2022-12-18T00:07:40;53.97;;;27.10;;
76695;SDS011;65626;44.498;0.166;2022-12-18T00:21:31;47.77;;;24.83;;
76695;SDS011;65626;44.498;0.166;2022-12-18T00:35:21;51.97;;;28.70;;
76695;SDS011;65626;44.498;0.166;2022-12-18T00:49:12;62.33;;;34.47;;
76695;SDS011;65626;44.498;0.166;2022-12-18T01:03:03;60.07;;;28.77;;
76695;SDS011;65626;44.498;0.166;2022-12-18T01:16:52;58.60;;;27.47;;
76695;SDS011;65626;44.498;0.166;2022-12-18T01:30:42;71.63;;;35.03;;
76695;SDS011;65626;44.498;0.166;2022-12-18T01:58:27;76.20;;;33.17;;
76695;SDS011;65626;44.498;0.166;2022-12-18T02:12:18;73.13;;;32.47;;
76695;SDS011;65626;44.498;0.166;2022-12-18T02:26:10;52.50;;;23.67;;
76695;SDS011;65626;44.498;0.166;2022-12-18T02:39:58;49.37;;;21.57;;
76695;SDS011;65626;44.498;0.166;2022-12-18T02:53:51;55.10;;;25.30;;
76695;SDS011;65626;44.498;0.166;2022-12-18T03:07:44;62.80;;;27.47;;
76695;SDS011;65626;44.498;0.166;2022-12-18T03:21:32;58.13;;;26.70;;
76695;SDS011;65626;44.498;0.166;2022-12-18T03:35:22;44.07;;;19.93;;
76695;SDS011;65626;44.498;0.166;2022-12-18T03:49:17;61.57;;;26.10;;
76695;SDS011;65626;44.498;0.166;2022-12-18T04:03:05;76.93;;;27.70;;
76695;SDS011;65626;44.498;0.166;2022-12-18T04:16:55;60.77;;;25.33;;
76695;SDS011;65626;44.498;0.166;2022-12-18T04:30:47;62.27;;;23.37;;
76695;SDS011;65626;44.498;0.166;2022-12-18T04:44:38;62.83;;;22.00;;
76695;SDS011;65626;44.498;0.166;2022-12-18T04:58:29;54.30;;;20.17;;
76695;SDS011;65626;44.498;0.166;2022-12-18T05:12:21;50.13;;;21.60;;
76695;SDS011;65626;44.498;0.166;2022-12-18T05:26:14;36.67;;;14.73;;
76695;SDS011;65626;44.498;0.166;2022-12-18T05:40:04;46.57;;;17.00;;
76695;SDS011;65626;44.498;0.166;2022-12-18T05:53:54;39.47;;;17.77;;
76695;SDS011;65626;44.498;0.166;2022-12-18T06:07:46;31.17;;;14.23;;
76695;SDS011;65626;44.498;0.166;2022-12-18T06:21:36;31.13;;;14.97;;
76695;SDS011;65626;44.498;0.166;2022-12-18T06:35:28;23.47;;;10.83;;
76695;SDS011;65626;44.498;0.166;2022-12-18T06:49:23;21.57;;;10.40;;
76695;SDS011;65626;44.498;0.166;2022-12-18T07:03:10;26.90;;;13.63;;
76695;SDS011;65626;44.498;0.166;2022-12-18T07:17:02;23.13;;;11.23;;
76695;SDS011;65626;44.498;0.166;2022-12-18T07:30:54;25.67;;;13.63;;
76695;SDS011;65626;44.498;0.166;2022-12-18T07:44:46;20.93;;;10.63;;
76695;SDS011;65626;44.498;0.166;2022-12-18T07:58:37;23.27;;;12.83;;
76695;SDS011;65626;44.498;0.166;2022-12-18T08:12:29;22.20;;;12.17;;
76695;SDS011;65626;44.498;0.166;2022-12-18T08:26:22;17.30;;;8.27;;
76695;SDS011;65626;44.498;0.166;2022-12-18T08:40:12;12.27;;;7.67;;
76695;SDS011;65626;44.498;0.166;2022-12-18T08:54:06;17.83;;;9.40;;
76695;SDS011;65626;44.498;0.166;2022-12-18T09:07:57;14.17;;;9.80;;
76695;SDS011;65626;44.498;0.166;2022-12-18T09:21:50;8.93;;;5.80;;
76695;SDS011;65626;44.498;0.166;2022-12-18T09:35:42;12.17;;;6.97;;
76695;SDS011;65626;44.498;0.166;2022-12-18T09:49:35;9.83;;;6.43;;
76695;SDS011;65626;44.498;0.166;2022-12-18T10:03:24;8.67;;;5.90;;
76695;SDS011;65626;44.498;0.166;2022-12-18T10:17:19;8.87;;;5.57;;
76695;SDS011;65626;44.498;0.166;2022-12-18T10:31:10;8.73;;;4.97;;
76695;SDS011;65626;44.498;0.166;2022-12-18T10:45:01;7.33;;;4.87;;
76695;SDS011;65626;44.498;0.166;2022-12-18T10:58:57;5.90;;;3.83;;
76695;SDS011;65626;44.498;0.166;2022-12-18T11:12:45;7.10;;;5.10;;
76695;SDS011;65626;44.498;0.166;2022-12-18T11:26:36;5.23;;;3.77;;
76695;SDS011;65626;44.498;0.166;2022-12-18T11:40:30;7.27;;;3.80;;
76695;SDS011;65626;44.498;0.166;2022-12-18T11:54:20;3.90;;;3.23;;
76695;SDS011;65626;44.498;0.166;2022-12-18T12:08:13;4.40;;;3.87;;
76695;SDS011;65626;44.498;0.166;2022-12-18T12:22:05;5.33;;;3.90;;
76695;SDS011;65626;44.498;0.166;2022-12-18T12:35:57;7.57;;;4.23;;
76695;SDS011;65626;44.498;0.166;2022-12-18T12:49:45;7.90;;;4.40;;
76695;SDS011;65626;44.498;0.166;2022-12-18T13:03:36;6.43;;;4.60;;
76695;SDS011;65626;44.498;0.166;2022-12-18T13:17:27;7.13;;;5.13;;
76695;SDS011;65626;44.498;0.166;2022-12-18T13:31:28;5.43;;;3.87;;
76695;SDS011;65626;44.498;0.166;2022-12-18T13:59:05;5.60;;;4.00;;
76695;SDS011;65626;44.498;0.166;2022-12-18T14:12:49;5.57;;;3.40;;
76695;SDS011;65626;44.498;0.166;2022-12-18T14:26:39;6.80;;;3.47;;
76695;SDS011;65626;44.498;0.166;2022-12-18T14:40:29;3.50;;;2.87;;
76695;SDS011;65626;44.498;0.166;2022-12-18T14:54:21;3.83;;;2.70;;
76695;SDS011;65626;44.498;0.166;2022-12-18T15:21:58;7.07;;;3.97;;
76695;SDS011;65626;44.498;0.166;2022-12-18T15:35:55;5.67;;;3.93;;
76695;SDS011;65626;44.498;0.166;2022-12-18T15:49:38;6.03;;;3.90;;
76695;SDS011;65626;44.498;0.166;2022-12-18T16:03:30;7.17;;;4.40;;
76695;SDS011;65626;44.498;0.166;2022-12-18T16:17:20;7.27;;;4.40;;
76695;SDS011;65626;44.498;0.166;2022-12-18T16:31:12;8.17;;;4.30;;
76695;SDS011;65626;44.498;0.166;2022-12-18T16:45:04;7.23;;;4.60;;
76695;SDS011;65626;44.498;0.166;2022-12-18T16:58:56;6.03;;;3.67;;
76695;SDS011;65626;44.498;0.166;2022-12-18T17:12:46;11.67;;;5.53;;
76695;SDS011;65626;44.498;0.166;2022-12-18T17:26:36;11.93;;;5.37;;
76695;SDS011;65626;44.498;0.166;2022-12-18T17:40:27;8.50;;;4.80;;
76695;SDS011;65626;44.498;0.166;2022-12-18T17:54:18;8.00;;;4.10;;
76695;SDS011;65626;44.498;0.166;2022-12-18T18:08:10;6.80;;;4.40;;
76695;SDS011;65626;44.498;0.166;2022-12-18T18:35:50;9.00;;;4.50;;
76695;SDS011;65626;44.498;0.166;2022-12-18T18:49:41;10.87;;;6.77;;
76695;SDS011;65626;44.498;0.166;2022-12-18T19:03:30;-1.00;;;-1.00;;
76695;SDS011;65626;44.498;0.166;2022-12-18T19:17:22;8.53;;;4.43;;
76695;SDS011;65626;44.498;0.166;2022-12-18T19:31:13;17.80;;;6.90;;
76695;SDS011;65626;44.498;0.166;2022-12-18T19:45:03;9.50;;;5.60;;
76695;SDS011;65626;44.498;0.166;2022-12-18T19:58:54;11.10;;;5.83;;
76695;SDS011;65626;44.498;0.166;2022-12-18T20:12:46;13.60;;;5.90;;
76695;SDS011;65626;44.498;0.166;2022-12-18T20:26:37;10.50;;;5.80;;
76695;SDS011;65626;44.498;0.166;2022-12-18T20:40:28;9.67;;;5.87;;
76695;SDS011;65626;44.498;0.166;2022-12-18T20:54:19;17.60;;;6.87;;
76695;SDS011;65626;44.498;0.166;2022-12-18T21:08:10;29.43;;;11.70;;
76695;SDS011;65626;44.498;0.166;2022-12-18T21:22:02;9.83;;;4.90;;
76695;SDS011;65626;44.498;0.166;2022-12-18T21:35:52;9.47;;;4.57;;
76695;SDS011;65626;44.498;0.166;2022-12-18T21:49:45;12.43;;;4.40;;
76695;SDS011;65626;44.498;0.166;2022-12-18T22:03:35;18.20;;;5.70;;
76695;SDS011;65626;44.498;0.166;2022-12-18T22:17:25;15.87;;;8.13;;
76695;SDS011;65626;44.498;0.166;2022-12-18T22:31:17;15.70;;;6.40;;
76695;SDS011;65626;44.498;0.166;2022-12-18T22:45:08;18.13;;;6.20;;
76695;SDS011;65626;44.498;0.166;2022-12-18T22:58:59;9.57;;;5.40;;
76695;SDS011;65626;44.498;0.166;2022-12-18T23:12:50;13.97;;;5.30;;
76695;SDS011;65626;44.498;0.166;2022-12-18T23:26:41;13.60;;;5.80;;
76695;SDS011;65626;44.498;0.166;2022-12-18T23:40:32;12.30;;;4.33;;
76695;SDS011;65626;44.498;0.166;2022-12-18T23:54:21;12.60;;;4.93;;
